Time;durP1;ratioP1;P1;durP2;ratioP2;P2;SDS_P1;SDS_P2;PMS_P1;PMS_P2;Temp;Humidity;BMP_temperature;BMP_pressure;BME280_temperature;BME280_humidity;BME280_pressure;Samples;Min_cycle;Max_cycle;Signal;HPM_P1;HPM_P2
2021/10/26 00:01:41;;;;;;;13.98;1.70;;;2.90;99.90;;;;;;5121376;27;20015;-66
2021/10/26 00:04:08;;;;;;;26.40;1.92;;;2.90;99.90;;;;;;5120725;27;20110;-66
2021/10/26 00:06:35;;;;;;;14.73;1.60;;;3.00;99.90;;;;;;5133737;27;20092;-66
2021/10/26 00:09:01;;;;;;;13.27;1.45;;;3.00;99.90;;;;;;5134550;27;20416;-66
2021/10/26 00:11:27;;;;;;;26.58;1.48;;;2.90;99.90;;;;;;5115309;27;20020;-66
2021/10/26 00:13:52;;;;;;;13.27;1.40;;;2.90;99.90;;;;;;5123632;27;20027;-66
2021/10/26 00:16:18;;;;;;;13.85;1.67;;;2.90;99.90;;;;;;5132115;27;20080;-66
2021/10/26 00:18:45;;;;;;;11.82;1.40;;;2.90;99.90;;;;;;5113668;28;20414;-67
2021/10/26 00:21:11;;;;;;;16.50;1.45;;;2.80;99.90;;;;;;5123919;27;20027;-67
2021/10/26 00:23:37;;;;;;;25.92;1.50;;;2.90;99.90;;;;;;5119502;27;20028;-67
2021/10/26 00:26:04;;;;;;;25.38;1.45;;;2.80;99.90;;;;;;5125582;27;20107;-67
2021/10/26 00:28:31;;;;;;;31.63;1.45;;;2.70;99.90;;;;;;5113240;28;20024;-66
2021/10/26 00:30:57;;;;;;;19.55;1.50;;;2.70;99.90;;;;;;5119689;27;20102;-67
2021/10/26 00:33:23;;;;;;;10.40;1.27;;;2.70;99.90;;;;;;5120705;27;20119;-67
2021/10/26 00:35:49;;;;;;;12.45;1.33;;;2.70;99.90;;;;;;5127412;27;20471;-67
2021/10/26 00:38:15;;;;;;;12.32;1.02;;;2.60;99.90;;;;;;5123672;27;20402;-66
2021/10/26 00:40:43;;;;;;;15.68;1.20;;;2.60;99.90;;;;;;5118848;27;20019;-65
2021/10/26 00:43:09;;;;;;;26.88;1.50;;;2.60;99.90;;;;;;5124514;27;20032;-65
2021/10/26 00:45:35;;;;;;;14.32;1.10;;;2.60;99.90;;;;;;5127221;27;20019;-64
2021/10/26 00:48:01;;;;;;;16.00;1.10;;;2.60;99.90;;;;;;5112957;28;20115;-64
2021/10/26 00:50:27;;;;;;;12.15;1.35;;;2.70;99.90;;;;;;5126232;27;20019;-64
2021/10/26 00:52:53;;;;;;;7.43;1.08;;;2.70;99.90;;;;;;5118765;27;20437;-64
2021/10/26 00:55:19;;;;;;;19.33;1.30;;;2.70;99.90;;;;;;5121770;27;20027;-64
2021/10/26 00:57:45;;;;;;;18.48;1.30;;;2.70;99.90;;;;;;5126863;27;20146;-64
2021/10/26 01:00:12;;;;;;;4.82;1.23;;;2.70;99.90;;;;;;5122256;27;20082;-64
2021/10/26 01:02:40;;;;;;;10.18;1.15;;;2.70;99.90;;;;;;5118349;27;20118;-64
2021/10/26 01:05:07;;;;;;;8.18;0.90;;;2.60;99.90;;;;;;5125304;27;20024;-64
2021/10/26 01:07:32;;;;;;;0.90;0.90;;;2.60;99.90;;;;;;5112777;28;20417;-64
2021/10/26 01:09:58;;;;;;;2.20;0.95;;;2.60;99.90;;;;;;5127043;27;20031;-64
2021/10/26 01:12:24;;;;;;;1.15;1.05;;;2.60;99.90;;;;;;5112270;28;20061;-65
2021/10/26 01:14:51;;;;;;;1.23;1.13;;;2.60;99.90;;;;;;5116083;27;20087;-65
2021/10/26 01:17:16;;;;;;;1.10;1.00;;;2.70;99.90;;;;;;5128471;27;20034;-65
2021/10/26 01:19:46;;;;;;;11.23;1.42;;;2.70;99.90;;;;;;5132831;27;20023;-65
2021/10/26 01:22:12;;;;;;;12.05;1.10;;;2.70;99.90;;;;;;5127503;27;20016;-65
2021/10/26 01:24:38;;;;;;;20.73;1.40;;;2.70;99.90;;;;;;5122876;27;20505;-65
2021/10/26 01:27:05;;;;;;;11.90;1.35;;;2.70;99.90;;;;;;5130302;27;20028;-65
2021/10/26 01:29:30;;;;;;;2.70;1.23;;;2.70;99.90;;;;;;5120877;27;20019;-65
2021/10/26 01:31:56;;;;;;;16.98;1.35;;;2.70;99.90;;;;;;5118594;27;20019;-65
2021/10/26 01:34:22;;;;;;;8.90;1.08;;;2.60;99.90;;;;;;5132567;27;20035;-65
2021/10/26 01:36:50;;;;;;;24.67;1.50;;;2.70;99.90;;;;;;5120053;27;20015;-65
2021/10/26 01:39:16;;;;;;;13.82;1.10;;;2.70;99.90;;;;;;5126597;28;20023;-65
2021/10/26 01:41:42;;;;;;;14.15;1.20;;;2.70;99.90;;;;;;5123546;27;20015;-65
2021/10/26 01:44:08;;;;;;;3.80;0.80;;;2.70;99.90;;;;;;5118060;28;20094;-65
2021/10/26 01:46:33;;;;;;;10.70;1.17;;;2.70;99.90;;;;;;5123237;28;20479;-66
2021/10/26 01:48:59;;;;;;;9.70;0.98;;;2.70;99.90;;;;;;5126322;28;20031;-66
2021/10/26 01:51:25;;;;;;;19.77;1.58;;;2.70;99.90;;;;;;5118709;28;20019;-65
2021/10/26 01:53:50;;;;;;;10.23;1.15;;;2.70;99.90;;;;;;5119306;28;20044;-65
2021/10/26 01:56:16;;;;;;;29.75;1.45;;;2.70;99.90;;;;;;5126144;28;20031;-65
2021/10/26 01:58:42;;;;;;;14.32;1.50;;;2.70;99.90;;;;;;5122968;28;20033;-64
2021/10/26 02:01:08;;;;;;;21.40;1.50;;;2.70;99.90;;;;;;5129503;28;20114;-64
2021/10/26 02:03:34;;;;;;;19.75;1.13;;;2.70;99.90;;;;;;5110462;28;20024;-64
2021/10/26 02:06:02;;;;;;;18.85;1.40;;;2.80;99.90;;;;;;5111685;28;20475;-64
2021/10/26 02:08:28;;;;;;;16.88;1.45;;;2.70;99.90;;;;;;5111622;28;20031;-64
2021/10/26 02:10:53;;;;;;;7.45;1.40;;;2.70;99.90;;;;;;5110497;28;20020;-64
2021/10/26 02:13:19;;;;;;;21.73;1.50;;;2.80;99.90;;;;;;5116703;28;20023;-64
2021/10/26 02:15:45;;;;;;;15.60;1.60;;;2.70;99.90;;;;;;5120717;28;20126;-64
2021/10/26 02:18:11;;;;;;;10.32;1.42;;;2.70;99.90;;;;;;5115803;28;20062;-64
2021/10/26 02:20:36;;;;;;;12.25;1.50;;;2.70;99.90;;;;;;5116613;28;20030;-64
2021/10/26 02:23:03;;;;;;;9.65;1.10;;;2.70;99.90;;;;;;5120474;28;20034;-64
2021/10/26 02:52:07;;;;;;;30.48;1.33;;;2.30;99.90;;;;;;5135727;27;20042;-64
2021/10/26 02:54:33;;;;;;;20.33;1.30;;;2.30;99.90;;;;;;5133801;27;20101;-64
2021/10/26 02:56:59;;;;;;;21.88;0.93;;;2.30;99.90;;;;;;5129299;27;20585;-64
2021/10/26 02:59:24;;;;;;;14.02;1.10;;;2.30;99.90;;;;;;5129579;27;20152;-64
2021/10/26 03:01:50;;;;;;;8.45;0.90;;;2.30;99.90;;;;;;5126406;27;20061;-65
2021/10/26 03:04:16;;;;;;;6.38;1.15;;;2.30;99.90;;;;;;5121083;27;20031;-64
2021/10/26 03:06:43;;;;;;;3.58;0.80;;;2.30;99.90;;;;;;5135278;27;20099;-64
2021/10/26 03:09:10;;;;;;;12.48;1.00;;;2.30;99.90;;;;;;5135405;27;20102;-65
2021/10/26 03:11:37;;;;;;;10.02;0.90;;;2.30;99.90;;;;;;5127824;27;20098;-64
2021/10/26 03:14:04;;;;;;;0.77;0.77;;;2.40;99.90;;;;;;5128685;27;20043;-64
2021/10/26 03:16:30;;;;;;;4.47;0.80;;;2.40;99.90;;;;;;5120674;27;20022;-64
2021/10/26 03:18:55;;;;;;;5.63;0.93;;;2.50;99.90;;;;;;5123744;27;20035;-64
2021/10/26 03:21:21;;;;;;;2.47;0.85;;;2.50;99.90;;;;;;5128944;27;20534;-64
2021/10/26 03:23:47;;;;;;;1.10;1.00;;;2.50;99.90;;;;;;5124237;27;20015;-64
2021/10/26 03:26:13;;;;;;;7.28;1.17;;;2.50;99.90;;;;;;5133824;27;20069;-64
2021/10/26 03:28:38;;;;;;;1.70;0.90;;;2.50;99.90;;;;;;5121417;27;20019;-64
2021/10/26 03:31:04;;;;;;;1.00;0.90;;;2.50;99.90;;;;;;5121494;27;20027;-65
2021/10/26 03:33:33;;;;;;;1.08;0.98;;;2.50;99.90;;;;;;5128762;27;20073;-65
2021/10/26 03:36:01;;;;;;;1.38;0.90;;;2.50;99.90;;;;;;5126116;27;20084;-65
2021/10/26 03:38:27;;;;;;;3.35;0.82;;;2.50;99.90;;;;;;5118965;27;20026;-64
2021/10/26 03:40:53;;;;;;;0.95;0.90;;;2.50;99.90;;;;;;5124536;27;20019;-64
2021/10/26 03:43:19;;;;;;;0.95;0.95;;;2.50;99.90;;;;;;5128549;27;20176;-64
2021/10/26 03:45:44;;;;;;;1.60;1.10;;;2.50;99.90;;;;;;5121464;27;20026;-64
2021/10/26 03:48:10;;;;;;;0.93;0.88;;;2.40;99.90;;;;;;5120886;27;20436;-64
2021/10/26 03:50:36;;;;;;;1.00;0.98;;;2.40;99.90;;;;;;5128118;27;20023;-64
2021/10/26 03:53:01;;;;;;;1.20;1.10;;;2.30;99.90;;;;;;5126002;27;20027;-65
2021/10/26 03:55:27;;;;;;;0.88;0.88;;;2.30;99.90;;;;;;5119880;27;20058;-64
2021/10/26 03:57:53;;;;;;;0.90;0.90;;;2.30;99.90;;;;;;5132994;27;20085;-64
2021/10/26 04:00:19;;;;;;;0.80;0.80;;;2.20;99.90;;;;;;5120114;27;20114;-65
2021/10/26 04:02:46;;;;;;;1.10;1.00;;;2.20;99.90;;;;;;5127315;27;20420;-65
2021/10/26 04:08:05;;;;;;;0.93;0.93;;;2.20;99.90;;;;;;5104434;27;20066;-64
2021/10/26 04:10:52;;;;;;;0.75;0.75;;;2.10;99.90;;;;;;5128199;27;20165;-64
2021/10/26 04:13:20;;;;;;;0.80;0.80;;;2.20;99.90;;;;;;5123477;27;20027;-64
2021/10/26 04:15:47;;;;;;;0.60;0.60;;;2.20;99.90;;;;;;5119625;27;20055;-64
2021/10/26 04:18:13;;;;;;;1.00;1.00;;;2.20;99.90;;;;;;5125877;27;20104;-64
2021/10/26 04:20:39;;;;;;;0.90;0.90;;;2.20;99.90;;;;;;5127676;27;20027;-64
2021/10/26 04:23:05;;;;;;;0.90;0.90;;;2.10;99.90;;;;;;5128006;27;20023;-64
2021/10/26 04:25:32;;;;;;;0.90;0.90;;;2.10;99.90;;;;;;5125870;27;20031;-64
2021/10/26 04:28:02;;;;;;;0.93;0.90;;;2.20;99.90;;;;;;5119395;27;20076;-64
2021/10/26 04:30:28;;;;;;;0.90;0.90;;;2.20;99.90;;;;;;5122816;27;20475;-66
2021/10/26 04:32:54;;;;;;;1.17;1.10;;;2.20;99.90;;;;;;5127441;27;20042;-65
2021/10/26 04:35:20;;;;;;;0.85;0.85;;;2.20;99.90;;;;;;5113027;28;20039;-65
2021/10/26 04:37:46;;;;;;;1.38;0.60;;;2.20;99.90;;;;;;5112579;28;20051;-66
2021/10/26 04:40:13;;;;;;;1.45;1.00;;;3.40;99.90;;;;;;5112820;28;20077;-65
2021/10/26 04:42:39;;;;;;;0.90;0.90;;;5.40;99.90;;;;;;5112763;28;20072;-65
2021/10/26 04:45:05;;;;;;;0.90;0.90;;;5.40;99.90;;;;;;5129259;27;20031;-64
2021/10/26 04:47:31;;;;;;;1.10;1.00;;;4.80;99.90;;;;;;5130604;27;20031;-65
2021/10/26 04:49:57;;;;;;;1.00;0.82;;;4.30;99.90;;;;;;5121014;27;20038;-65
2021/10/26 04:52:23;;;;;;;0.85;0.85;;;3.90;99.90;;;;;;5125456;27;20039;-65
2021/10/26 04:54:49;;;;;;;0.77;0.77;;;3.60;99.90;;;;;;5125386;27;20027;-66
2021/10/26 04:57:15;;;;;;;1.10;1.00;;;3.40;99.90;;;;;;5120024;27;20043;-66
2021/10/26 04:59:41;;;;;;;1.23;0.95;;;3.20;99.90;;;;;;5132375;27;20050;-66
2021/10/26 05:02:07;;;;;;;1.08;0.98;;;3.10;99.90;;;;;;5124211;27;20089;-66
2021/10/26 05:04:33;;;;;;;1.10;1.00;;;3.00;99.90;;;;;;5119914;27;20031;-66
2021/10/26 05:06:59;;;;;;;1.10;1.00;;;3.00;99.90;;;;;;5124158;27;20019;-66
2021/10/26 05:09:25;;;;;;;1.15;0.90;;;2.90;99.90;;;;;;5128439;27;20023;-66
2021/10/26 05:11:50;;;;;;;0.80;0.80;;;2.90;99.90;;;;;;5120695;27;20482;-65
2021/10/26 05:14:16;;;;;;;1.00;0.90;;;2.80;99.90;;;;;;5121086;27;20035;-65
2021/10/26 05:16:46;;;;;;;0.80;0.80;;;2.80;99.90;;;;;;5121538;27;20023;-65
2021/10/26 05:19:12;;;;;;;1.20;1.10;;;2.80;99.90;;;;;;5120208;27;20042;-65
2021/10/26 05:21:38;;;;;;;2.63;1.90;;;2.80;99.90;;;;;;5125187;27;20034;-65
2021/10/26 05:24:04;;;;;;;7.32;3.03;;;2.80;99.90;;;;;;5125457;27;20024;-64
2021/10/26 05:26:34;;;;;;;1.73;1.20;;;2.80;99.90;;;;;;5132297;27;20015;-64
2021/10/26 05:29:00;;;;;;;0.98;0.90;;;2.90;99.90;;;;;;5125381;27;20022;-64
2021/10/26 05:31:26;;;;;;;2.15;1.35;;;2.90;99.90;;;;;;5125608;27;20541;-64
2021/10/26 05:33:52;;;;;;;1.35;1.25;;;2.80;99.90;;;;;;5128911;27;20023;-64
2021/10/26 05:36:17;;;;;;;1.67;1.20;;;2.80;99.90;;;;;;5129440;27;20379;-64
2021/10/26 05:38:43;;;;;;;1.55;1.45;;;2.80;99.90;;;;;;5125647;27;20047;-64
2021/10/26 05:41:11;;;;;;;2.67;1.58;;;2.80;99.90;;;;;;5125461;27;20024;-64
2021/10/26 05:43:41;;;;;;;1.55;1.30;;;2.70;99.90;;;;;;5132784;27;20092;-65
2021/10/26 05:46:07;;;;;;;1.92;0.93;;;2.70;99.90;;;;;;5119966;28;20031;-65
2021/10/26 05:48:33;;;;;;;1.45;1.08;;;2.60;99.90;;;;;;5119107;28;20028;-65
2021/10/26 05:51:04;;;;;;;1.77;1.33;;;3.00;99.90;;;;;;5123261;28;20034;-66
2021/10/26 05:53:30;;;;;;;;;;;3.40;99.90;;;;;;5120873;28;20103;-65
2021/10/26 05:55:56;;;;;;;2.20;1.60;;;3.50;99.90;;;;;;5126315;28;20402;-65
2021/10/26 05:58:21;;;;;;;2.03;1.52;;;3.30;99.90;;;;;;5128832;28;20077;-65
2021/10/26 06:00:47;;;;;;;1.23;1.10;;;3.10;99.90;;;;;;5126205;28;20039;-64
2021/10/26 06:03:13;;;;;;;1.27;1.15;;;2.90;99.90;;;;;;5111811;28;20479;-64
2021/10/26 06:05:39;;;;;;;1.20;1.10;;;2.80;99.90;;;;;;5116881;28;20073;-65
2021/10/26 06:08:06;;;;;;;1.58;1.13;;;2.80;99.90;;;;;;5112802;28;20023;-65
2021/10/26 06:10:35;;;;;;;1.80;1.60;;;2.70;99.90;;;;;;5130329;27;20026;-65
2021/10/26 06:13:07;;;;;;;2.50;1.80;;;2.60;99.90;;;;;;5127817;27;20022;-64
2021/10/26 06:15:33;;;;;;;3.45;2.30;;;2.60;99.90;;;;;;5117296;27;20032;-65
2021/10/26 06:17:59;;;;;;;2.33;1.55;;;2.50;99.90;;;;;;5115777;28;20516;-63
2021/10/26 06:20:25;;;;;;;1.90;1.23;;;2.50;99.90;;;;;;5115980;28;20030;-64
2021/10/26 06:22:51;;;;;;;1.75;1.35;;;2.40;99.90;;;;;;5113961;28;20467;-64
2021/10/26 06:25:17;;;;;;;2.17;1.20;;;2.40;99.90;;;;;;5115561;28;20033;-64
2021/10/26 06:27:42;;;;;;;1.42;1.30;;;2.40;99.90;;;;;;5129923;27;20473;-66
2021/10/26 06:30:08;;;;;;;1.90;1.50;;;2.40;99.90;;;;;;5119834;27;20095;-66
2021/10/26 06:32:34;;;;;;;2.83;1.05;;;3.00;99.90;;;;;;5129375;27;20084;-66
2021/10/26 06:35:00;;;;;;;2.85;1.60;;;4.00;99.90;;;;;;5126976;27;20059;-66
2021/10/26 06:37:26;;;;;;;1.83;1.30;;;4.80;99.90;;;;;;5129252;27;20019;-65
2021/10/26 06:39:55;;;;;;;1.30;1.08;;;5.20;99.90;;;;;;5122070;27;20034;-65
2021/10/26 06:42:21;;;;;;;1.65;1.00;;;4.90;99.90;;;;;;5129334;27;20477;-64
2021/10/26 06:44:47;;;;;;;1.42;1.25;;;4.40;99.90;;;;;;5121673;27;20023;-66
2021/10/26 06:47:14;;;;;;;1.48;1.10;;;4.00;99.90;;;;;;5124342;27;20059;-65
2021/10/26 06:49:40;;;;;;;1.40;1.17;;;3.70;99.90;;;;;;5125037;27;20545;-65
2021/10/26 06:52:07;;;;;;;0.90;0.90;;;3.60;99.90;;;;;;5123154;27;20094;-65
2021/10/26 06:54:33;;;;;;;1.73;1.10;;;3.50;99.90;;;;;;5125053;27;20028;-65
2021/10/26 06:56:59;;;;;;;1.65;1.30;;;3.30;99.90;;;;;;5116954;27;20058;-65
2021/10/26 06:59:25;;;;;;;1.40;1.13;;;3.20;99.90;;;;;;5128370;27;20023;-65
2021/10/26 07:01:50;;;;;;;1.30;1.00;;;3.20;99.90;;;;;;5128184;27;20027;-63
2021/10/26 07:04:16;;;;;;;1.40;1.17;;;3.10;99.90;;;;;;5120702;27;20022;-65
2021/10/26 07:06:42;;;;;;;1.65;1.20;;;3.10;99.90;;;;;;5132933;27;20126;-65
2021/10/26 07:09:07;;;;;;;1.85;1.23;;;3.00;99.90;;;;;;5140389;27;20023;-65
2021/10/26 07:11:33;;;;;;;2.33;1.27;;;3.00;99.90;;;;;;5131421;27;20011;-64
2021/10/26 07:13:59;;;;;;;1.60;1.40;;;3.00;99.90;;;;;;5135728;27;20031;-64
2021/10/26 07:16:25;;;;;;;1.45;1.05;;;3.00;99.90;;;;;;5135765;27;20042;-64
2021/10/26 07:18:50;;;;;;;1.30;1.10;;;2.90;99.90;;;;;;5135333;27;20019;-64
2021/10/26 07:21:18;;;;;;;1.23;1.10;;;3.00;99.90;;;;;;5134990;27;20031;-64
2021/10/26 07:23:43;;;;;;;1.90;1.40;;;3.00;99.90;;;;;;5135510;27;20030;-64
2021/10/26 07:26:09;;;;;;;2.25;1.48;;;2.90;99.90;;;;;;5135265;27;20015;-64
2021/10/26 07:28:35;;;;;;;2.33;1.70;;;2.90;99.90;;;;;;5135242;27;20090;-65
2021/10/26 07:31:01;;;;;;;3.25;1.98;;;2.90;99.90;;;;;;5135274;27;20410;-65
2021/10/26 07:33:31;;;;;;;4.47;2.97;;;3.00;99.90;;;;;;5132319;27;20019;-65
2021/10/26 07:35:57;;;;;;;5.82;2.92;;;3.00;99.90;;;;;;5139819;27;20482;-65
2021/10/26 07:40:52;;;;;;;5.63;2.90;;;2.90;99.90;;;;;;5142735;27;20395;-65
2021/10/26 07:43:18;;;;;;;5.82;2.60;;;2.90;99.90;;;;;;5141098;27;20027;-65
2021/10/26 07:45:45;;;;;;;2.55;1.75;;;2.90;99.90;;;;;;5143882;27;20026;-65
2021/10/26 07:48:10;;;;;;;1.65;1.35;;;2.90;99.90;;;;;;5142884;27;20018;-65
2021/10/26 07:50:36;;;;;;;1.60;1.40;;;2.80;99.90;;;;;;5138546;27;20028;-65
2021/10/26 07:53:02;;;;;;;2.45;1.55;;;2.80;99.90;;;;;;5134988;27;20057;-65
2021/10/26 07:55:28;;;;;;;1.60;1.27;;;2.80;99.90;;;;;;5143496;27;20119;-66
2021/10/26 07:57:55;;;;;;;2.53;1.60;;;2.80;99.90;;;;;;5134226;27;20497;-65
2021/10/26 08:00:20;;;;;;;1.40;1.30;;;2.80;99.90;;;;;;5134502;27;20029;-65
2021/10/26 08:02:46;;;;;;;1.40;1.30;;;2.90;99.90;;;;;;5134261;27;20015;-65
2021/10/26 08:05:12;;;;;;;1.75;1.30;;;2.90;99.90;;;;;;5133977;27;20027;-65
2021/10/26 08:07:37;;;;;;;1.48;1.20;;;3.00;99.90;;;;;;5149209;27;20023;-66
2021/10/26 08:10:04;;;;;;;1.30;1.20;;;3.00;99.90;;;;;;5146551;27;20542;-63
2021/10/26 08:12:30;;;;;;;1.35;1.15;;;3.10;99.90;;;;;;5113500;28;20480;-65
2021/10/26 08:14:56;;;;;;;2.47;1.60;;;3.10;99.90;;;;;;5140148;27;20035;-65
2021/10/26 08:17:22;;;;;;;7.82;4.05;;;3.10;99.90;;;;;;5133850;27;20397;-65
2021/10/26 08:19:49;;;;;;;9.05;6.07;;;3.20;99.90;;;;;;5133782;27;20053;-65
2021/10/26 08:22:17;;;;;;;9.43;5.80;;;3.20;99.90;;;;;;5133894;27;20027;-65
2021/10/26 08:24:49;;;;;;;7.22;3.92;;;3.30;99.90;;;;;;5133865;27;20067;-65
2021/10/26 08:27:17;;;;;;;34.20;17.35;;;3.40;99.90;;;;;;5133736;27;20080;-65
2021/10/26 08:32:32;;;;;;;1.10;1.03;;;3.40;99.90;;;;;;5134034;27;20035;-65
2021/10/26 08:37:47;;;;;;;11.05;9.88;;;3.40;99.90;;;;;;5134155;27;20114;-63
2021/10/26 08:40:17;;;;;;;3.20;2.78;;;3.50;99.90;;;;;;5133796;27;20466;-65
2021/10/26 08:42:45;;;;;;;17.52;11.75;;;3.60;99.90;;;;;;5139384;27;20047;-66
2021/10/26 08:45:11;;;;;;;4.43;4.03;;;3.60;99.90;;;;;;5133384;27;20034;-64
2021/10/26 08:47:41;;;;;;;1.70;1.60;;;3.60;99.90;;;;;;5133818;27;20091;-65
2021/10/26 08:50:07;;;;;;;1.20;1.10;;;3.50;99.90;;;;;;5151183;27;20549;-65
2021/10/26 08:52:33;;;;;;;1.15;1.05;;;3.50;99.90;;;;;;5149631;27;20491;-65
2021/10/26 08:54:59;;;;;;;2.03;1.10;;;3.50;99.90;;;;;;5141326;27;20031;-65
2021/10/26 08:57:27;;;;;;;1.10;1.00;;;3.50;99.90;;;;;;5138465;27;20494;-65
2021/10/26 08:59:57;;;;;;;1.40;1.30;;;3.50;99.90;;;;;;5136016;27;20019;-65
2021/10/26 09:02:55;;;;;;;1.58;1.48;;;3.50;99.90;;;;;;5143074;27;20029;-67
2021/10/26 09:05:24;;;;;;;4.03;1.35;;;3.40;99.90;;;;;;5101959;27;20042;-65
2021/10/26 09:08:28;;;;;;;2.92;1.60;;;3.40;99.90;;;;;;5136644;27;20023;-65
2021/10/26 09:10:57;;;;;;;3.28;1.40;;;3.40;99.90;;;;;;5117264;27;20031;-65
2021/10/26 09:19:42;;;;;;;1.55;1.40;;;3.50;99.90;;;;;;5089520;28;20027;-65
2021/10/26 09:22:07;;;;;;;1.92;1.70;;;3.50;99.90;;;;;;5127829;27;20035;-65
2021/10/26 09:24:33;;;;;;;3.30;1.30;;;3.50;99.90;;;;;;5132400;27;20011;-65
2021/10/26 09:27:02;;;;;;;1.63;1.52;;;3.40;99.90;;;;;;5132484;27;20130;-65
2021/10/26 09:29:32;;;;;;;2.00;1.30;;;3.50;99.90;;;;;;5132952;27;20094;-66
2021/10/26 09:32:48;;;;;;;1.65;1.40;;;3.50;99.90;;;;;;5153026;27;20022;-65
2021/10/26 09:35:18;;;;;;;2.80;1.38;;;3.50;99.90;;;;;;5119392;27;20039;-66
2021/10/26 09:37:45;;;;;;;1.63;1.30;;;3.50;99.90;;;;;;5153642;27;20046;-66
2021/10/26 09:40:12;;;;;;;1.52;1.42;;;3.50;99.90;;;;;;5144049;27;20506;-66
2021/10/26 09:42:45;;;;;;;1.42;1.27;;;3.50;99.90;;;;;;5140604;27;20161;-66
2021/10/26 09:45:14;;;;;;;1.85;1.50;;;3.50;99.90;;;;;;5130445;27;20463;-66
2021/10/26 09:47:43;;;;;;;1.38;1.15;;;3.50;99.90;;;;;;5132309;27;20023;-66
2021/10/26 09:50:11;;;;;;;1.83;1.45;;;3.60;99.90;;;;;;5138653;27;20019;-66
2021/10/26 09:52:41;;;;;;;1.45;1.35;;;3.60;99.90;;;;;;5133576;27;20011;-66
2021/10/26 09:57:46;;;;;;;1.50;1.40;;;3.60;99.90;;;;;;5143000;27;20047;-66
2021/10/26 10:00:14;;;;;;;1.93;1.20;;;3.70;99.90;;;;;;5130107;27;20073;-66
2021/10/26 10:02:40;;;;;;;1.55;1.33;;;3.60;99.90;;;;;;5131758;27;20050;-66
2021/10/26 10:05:08;;;;;;;2.50;1.17;;;3.70;99.90;;;;;;5122363;28;20027;-66
2021/10/26 10:07:38;;;;;;;1.20;1.10;;;3.70;99.90;;;;;;5137826;27;20079;-66
2021/10/26 10:10:09;;;;;;;1.73;1.20;;;3.70;99.90;;;;;;5145035;27;20022;-66
2021/10/26 10:12:36;;;;;;;1.40;1.30;;;3.70;99.90;;;;;;5132379;28;20059;-66
2021/10/26 10:15:05;;;;;;;1.50;1.40;;;3.80;99.90;;;;;;5131904;28;20031;-66
2021/10/26 10:17:34;;;;;;;1.02;1.02;;;3.80;99.90;;;;;;5132507;28;20030;-66
2021/10/26 10:20:00;;;;;;;1.13;0.98;;;3.80;99.90;;;;;;5132153;28;20027;-66
2021/10/26 10:22:28;;;;;;;1.83;1.25;;;3.80;99.90;;;;;;5132149;28;20032;-65
2021/10/26 10:24:57;;;;;;;1.40;1.30;;;3.80;99.90;;;;;;5132009;28;20028;-66
2021/10/26 10:27:31;;;;;;;0.90;0.90;;;3.80;99.90;;;;;;5131959;28;20031;-65
2021/10/26 10:29:58;;;;;;;1.83;1.40;;;3.80;99.90;;;;;;5131940;28;20026;-67
2021/10/26 10:32:26;;;;;;;1.13;1.08;;;3.80;99.90;;;;;;5131750;27;20054;-71
2021/10/26 10:34:53;;;;;;;1.20;1.10;;;3.80;99.90;;;;;;5138251;27;20035;-67
2021/10/26 10:37:28;;;;;;;1.15;1.08;;;3.80;99.90;;;;;;5131885;28;20019;-67
2021/10/26 10:39:59;;;;;;;1.10;1.10;;;3.90;99.90;;;;;;5132034;28;20526;-66
2021/10/26 10:42:25;;;;;;;;;;;3.90;99.90;;;;;;5132511;28;20027;-66
2021/10/26 10:45:00;;;;;;;1.10;1.00;;;3.90;99.90;;;;;;5131885;28;19994;-66
2021/10/26 10:47:33;;;;;;;1.15;1.05;;;3.90;99.90;;;;;;5131910;27;20027;-66
2021/10/26 10:49:59;;;;;;;1.10;1.00;;;3.90;99.90;;;;;;5130344;28;20034;-66
2021/10/26 10:52:34;;;;;;;3.22;1.20;;;3.90;99.90;;;;;;5131949;28;20030;-66
2021/10/26 10:55:20;;;;;;;1.25;1.15;;;3.90;99.90;;;;;;5130124;27;20067;-66
2021/10/26 10:57:46;;;;;;;1.00;1.00;;;4.00;99.90;;;;;;5135209;27;20043;-64
2021/10/26 11:00:34;;;;;;;0.90;0.90;;;4.00;99.90;;;;;;5135500;27;20073;-65
2021/10/26 11:02:59;;;;;;;1.00;1.00;;;3.90;99.90;;;;;;5135364;27;20035;-64
2021/10/26 11:05:32;;;;;;;1.02;0.93;;;3.90;99.90;;;;;;5135737;27;20455;-65
2021/10/26 11:08:12;;;;;;;1.10;1.00;;;4.00;99.90;;;;;;5135105;27;20019;-65
2021/10/26 11:10:53;;;;;;;1.42;0.93;;;4.00;99.90;;;;;;5115840;27;20448;-65
2021/10/26 11:13:20;;;;;;;1.17;1.00;;;4.00;99.90;;;;;;5135117;27;20015;-66
2021/10/26 11:15:48;;;;;;;0.90;0.90;;;4.00;99.90;;;;;;5133652;27;20031;-67
2021/10/26 11:18:32;;;;;;;2.70;1.15;;;4.00;99.90;;;;;;5135180;27;20019;-65
2021/10/26 11:20:59;;;;;;;1.05;0.90;;;4.00;99.90;;;;;;5135318;27;20019;-69
2021/10/26 11:23:39;;;;;;;1.20;0.88;;;5.10;99.90;;;;;;5135120;27;20015;-66
2021/10/26 11:26:14;;;;;;;0.65;0.65;;;5.30;99.90;;;;;;5135151;27;20023;-66
2021/10/26 11:29:00;;;;;;;5.13;1.58;;;5.00;99.90;;;;;;5134793;27;20767;-69
2021/10/26 11:31:29;;;;;;;0.70;0.70;;;5.40;99.90;;;;;;5135466;27;20059;-66
2021/10/26 11:34:07;;;;;;;0.80;0.80;;;7.20;99.90;;;;;;5135215;27;20106;-66
2021/10/26 11:36:36;;;;;;;0.63;0.63;;;6.80;99.90;;;;;;5135512;27;20107;-66
2021/10/26 11:39:08;;;;;;;1.10;0.60;;;6.30;99.90;;;;;;5135309;27;20015;-66
2021/10/26 11:41:38;;;;;;;1.13;0.73;;;5.90;99.90;;;;;;5135477;27;20023;-66
2021/10/26 11:44:07;;;;;;;0.55;0.55;;;5.70;99.90;;;;;;5135181;27;20016;-66
2021/10/26 11:46:42;;;;;;;0.63;0.63;;;5.60;99.90;;;;;;5135272;27;20027;-66
2021/10/26 11:49:21;;;;;;;0.60;0.60;;;5.50;99.90;;;;;;5134844;27;20030;-67
2021/10/26 11:52:06;;;;;;;0.65;0.57;;;5.40;99.90;;;;;;5134777;27;20494;-67
2021/10/26 11:54:39;;;;;;;1.00;0.90;;;5.30;99.90;;;;;;5134903;27;20498;-66
2021/10/26 11:57:07;;;;;;;0.75;0.75;;;6.40;99.90;;;;;;5133853;27;20047;-67
2021/10/26 11:59:38;;;;;;;0.70;0.60;;;6.90;99.90;;;;;;5134597;27;20019;-66
2021/10/26 12:02:04;;;;;;;0.63;0.60;;;6.70;99.90;;;;;;5134759;27;20024;-65
2021/10/26 12:04:35;;;;;;;0.70;0.70;;;6.90;99.90;;;;;;5134733;27;20103;-64
2021/10/26 12:07:06;;;;;;;1.65;0.60;;;6.80;99.90;;;;;;5134194;27;20019;-65
2021/10/26 12:09:36;;;;;;;2.25;0.60;;;6.40;99.90;;;;;;5134531;27;20518;-65
2021/10/26 12:12:13;;;;;;;0.63;0.63;;;6.10;99.90;;;;;;5134568;27;20510;-65
2021/10/26 12:14:40;;;;;;;0.50;0.50;;;5.80;99.90;;;;;;5134716;27;20455;-65
2021/10/26 12:17:25;;;;;;;1.35;0.60;;;5.70;99.90;;;;;;5134342;27;20025;-65
2021/10/26 12:20:12;;;;;;;0.60;0.60;;;5.50;99.90;;;;;;5133168;27;20030;-65
2021/10/26 12:22:45;;;;;;;1.08;0.70;;;5.50;99.90;;;;;;5134424;27;20027;-65
2021/10/26 12:25:21;;;;;;;1.23;0.57;;;5.40;99.90;;;;;;5139953;27;20019;-65
2021/10/26 12:28:06;;;;;;;2.05;0.60;;;5.40;99.90;;;;;;5155148;27;20102;-64
2021/10/26 12:30:55;;;;;;;0.63;0.63;;;5.30;99.90;;;;;;5155316;27;20026;-64
2021/10/26 12:33:28;;;;;;;0.60;0.60;;;5.30;99.90;;;;;;5154946;27;20026;-64
2021/10/26 12:35:58;;;;;;;0.70;0.70;;;5.20;99.90;;;;;;5154916;27;20486;-64
2021/10/26 12:38:29;;;;;;;0.77;0.70;;;5.10;99.90;;;;;;5154917;27;20023;-64
2021/10/26 12:41:03;;;;;;;0.63;0.50;;;5.10;99.90;;;;;;5154775;27;20019;-64
2021/10/26 12:43:29;;;;;;;0.60;0.60;;;5.10;99.90;;;;;;5154764;27;20029;-64
2021/10/26 12:45:58;;;;;;;2.05;0.70;;;5.00;99.90;;;;;;5154839;27;20110;-64
2021/10/26 12:48:33;;;;;;;0.70;0.70;;;5.00;99.90;;;;;;5154841;27;20015;-64
2021/10/26 12:51:00;;;;;;;0.60;0.60;;;5.10;99.90;;;;;;5154789;27;20107;-65
2021/10/26 12:53:43;;;;;;;4.82;3.63;;;5.40;99.90;;;;;;5154422;27;20042;-65
2021/10/26 12:56:29;;;;;;;1.30;1.20;;;5.40;99.90;;;;;;5147750;27;20444;-65
2021/10/26 12:59:07;;;;;;;0.60;0.60;;;5.30;99.90;;;;;;5126946;27;20028;-66
2021/10/26 13:01:42;;;;;;;0.68;0.68;;;5.20;99.90;;;;;;5113070;28;20081;-66
2021/10/26 13:04:22;;;;;;;6.60;6.10;;;5.20;99.90;;;;;;5134810;27;20102;-66
2021/10/26 13:06:56;;;;;;;5.65;3.78;;;5.10;99.90;;;;;;5133504;27;20023;-66
2021/10/26 13:09:33;;;;;;;2.83;1.20;;;5.10;99.90;;;;;;5133531;27;20505;-66
2021/10/26 13:12:33;;;;;;;2.47;0.80;;;5.10;99.90;;;;;;5124227;27;20027;-66
2021/10/26 13:15:04;;;;;;;0.77;0.77;;;5.10;99.90;;;;;;5119349;27;20398;-67
2021/10/26 13:17:47;;;;;;;0.93;0.63;;;5.10;99.90;;;;;;5122190;27;20011;-68
2021/10/26 13:20:23;;;;;;;3.30;0.75;;;5.10;99.90;;;;;;5112640;28;20031;-65
2021/10/26 13:23:04;;;;;;;0.60;0.60;;;6.00;99.90;;;;;;5112575;28;20012;-65
2021/10/26 13:25:33;;;;;;;0.80;0.70;;;6.30;99.90;;;;;;5120708;27;20019;-66
2021/10/26 13:28:03;;;;;;;4.20;0.77;;;6.10;99.90;;;;;;5120326;27;20023;-66
2021/10/26 13:30:29;;;;;;;0.93;0.63;;;5.90;99.90;;;;;;5123587;27;20067;-66
2021/10/26 13:32:57;;;;;;;1.95;0.60;;;5.80;99.90;;;;;;5123218;27;20023;-65
2021/10/26 13:35:24;;;;;;;0.68;0.68;;;5.70;99.90;;;;;;5123610;27;20112;-66
2021/10/26 13:37:49;;;;;;;0.52;0.52;;;5.50;99.90;;;;;;5119716;27;20028;-65
2021/10/26 13:40:15;;;;;;;0.60;0.60;;;5.50;99.90;;;;;;5115241;27;20725;-66
2021/10/26 13:42:41;;;;;;;0.60;0.60;;;5.50;99.90;;;;;;5114579;27;20067;-66
2021/10/26 13:45:08;;;;;;;0.75;0.70;;;5.40;99.90;;;;;;5153815;27;20027;-66
2021/10/26 13:47:40;;;;;;;0.50;0.50;;;5.40;99.90;;;;;;5153659;27;20079;-66
2021/10/26 13:50:07;;;;;;;0.68;0.57;;;5.30;99.90;;;;;;5152329;27;20053;-65